sensor_id;sensor_type;location;lat;lon;timestamp;P1;durP1;ratioP1;P2;durP2;ratioP2
40252;SDS011;25972;51.854;4.534;2023-11-19T00:01:12;10.98;;;9.77;;
40252;SDS011;25972;51.854;4.534;2023-11-19T00:03:38;24.60;;;11.30;;
40252;SDS011;25972;51.854;4.534;2023-11-19T00:06:06;22.63;;;12.27;;
40252;SDS011;25972;51.854;4.534;2023-11-19T00:08:35;20.00;;;11.32;;
40252;SDS011;25972;51.854;4.534;2023-11-19T00:11:01;12.00;;;9.98;;
40252;SDS011;25972;51.854;4.534;2023-11-19T00:13:28;32.90;;;11.43;;
40252;SDS011;25972;51.854;4.534;2023-11-19T00:15:54;18.58;;;10.10;;
40252;SDS011;25972;51.854;4.534;2023-11-19T00:18:20;25.40;;;12.13;;
40252;SDS011;25972;51.854;4.534;2023-11-19T00:20:46;34.03;;;11.73;;
40252;SDS011;25972;51.854;4.534;2023-11-19T00:23:13;31.42;;;12.10;;
40252;SDS011;25972;51.854;4.534;2023-11-19T00:25:39;24.33;;;11.70;;
40252;SDS011;25972;51.854;4.534;2023-11-19T00:28:05;15.05;;;11.10;;
40252;SDS011;25972;51.854;4.534;2023-11-19T00:30:31;12.10;;;9.75;;
40252;SDS011;25972;51.854;4.534;2023-11-19T00:32:58;21.23;;;12.73;;
40252;SDS011;25972;51.854;4.534;2023-11-19T00:35:24;30.38;;;11.27;;
40252;SDS011;25972;51.854;4.534;2023-11-19T00:37:50;12.98;;;9.93;;
40252;SDS011;25972;51.854;4.534;2023-11-19T00:40:17;19.60;;;10.50;;
40252;SDS011;25972;51.854;4.534;2023-11-19T00:42:46;31.30;;;12.60;;
40252;SDS011;25972;51.854;4.534;2023-11-19T00:45:12;23.60;;;11.73;;
40252;SDS011;25972;51.854;4.534;2023-11-19T00:47:39;19.40;;;10.55;;
40252;SDS011;25972;51.854;4.534;2023-11-19T00:50:06;22.02;;;10.77;;
40252;SDS011;25972;51.854;4.534;2023-11-19T00:52:34;31.02;;;11.63;;
40252;SDS011;25972;51.854;4.534;2023-11-19T00:55:02;21.25;;;11.43;;
40252;SDS011;25972;51.854;4.534;2023-11-19T00:57:31;31.20;;;11.82;;
40252;SDS011;25972;51.854;4.534;2023-11-19T01:00:00;25.00;;;10.73;;
40252;SDS011;25972;51.854;4.534;2023-11-19T01:02:28;18.52;;;10.80;;
40252;SDS011;25972;51.854;4.534;2023-11-19T01:04:55;26.25;;;11.90;;
40252;SDS011;25972;51.854;4.534;2023-11-19T01:07:21;29.10;;;12.60;;
40252;SDS011;25972;51.854;4.534;2023-11-19T01:09:50;25.15;;;11.93;;
40252;SDS011;25972;51.854;4.534;2023-11-19T01:12:16;23.08;;;11.00;;
40252;SDS011;25972;51.854;4.534;2023-11-19T01:14:44;32.25;;;12.20;;
40252;SDS011;25972;51.854;4.534;2023-11-19T01:17:10;39.25;;;12.57;;
40252;SDS011;25972;51.854;4.534;2023-11-19T01:19:36;28.83;;;12.52;;
40252;SDS011;25972;51.854;4.534;2023-11-19T01:22:02;24.10;;;12.43;;
40252;SDS011;25972;51.854;4.534;2023-11-19T01:24:28;21.58;;;11.48;;
40252;SDS011;25972;51.854;4.534;2023-11-19T01:26:56;13.35;;;10.95;;
40252;SDS011;25972;51.854;4.534;2023-11-19T01:29:23;34.90;;;12.63;;
40252;SDS011;25972;51.854;4.534;2023-11-19T01:31:50;29.45;;;11.82;;
40252;SDS011;25972;51.854;4.534;2023-11-19T01:34:16;23.35;;;11.70;;
40252;SDS011;25972;51.854;4.534;2023-11-19T01:36:42;22.00;;;12.13;;
40252;SDS011;25972;51.854;4.534;2023-11-19T01:39:08;12.90;;;11.35;;
40252;SDS011;25972;51.854;4.534;2023-11-19T01:41:34;26.38;;;11.85;;
40252;SDS011;25972;51.854;4.534;2023-11-19T01:44:01;24.88;;;11.45;;
40252;SDS011;25972;51.854;4.534;2023-11-19T01:46:27;23.70;;;13.48;;
40252;SDS011;25972;51.854;4.534;2023-11-19T01:48:56;30.90;;;13.68;;
40252;SDS011;25972;51.854;4.534;2023-11-19T01:51:22;34.03;;;13.20;;
40252;SDS011;25972;51.854;4.534;2023-11-19T01:53:48;26.83;;;13.25;;
40252;SDS011;25972;51.854;4.534;2023-11-19T01:56:14;27.60;;;14.32;;
40252;SDS011;25972;51.854;4.534;2023-11-19T01:58:41;44.72;;;15.10;;
40252;SDS011;25972;51.854;4.534;2023-11-19T02:01:09;25.40;;;12.77;;
40252;SDS011;25972;51.854;4.534;2023-11-19T02:03:36;44.10;;;14.95;;
40252;SDS011;25972;51.854;4.534;2023-11-19T02:06:05;48.28;;;15.05;;
40252;SDS011;25972;51.854;4.534;2023-11-19T02:08:32;20.42;;;12.85;;
40252;SDS011;25972;51.854;4.534;2023-11-19T02:10:59;24.80;;;14.23;;
40252;SDS011;25972;51.854;4.534;2023-11-19T02:13:25;34.45;;;13.75;;
40252;SDS011;25972;51.854;4.534;2023-11-19T02:15:51;32.38;;;14.27;;
40252;SDS011;25972;51.854;4.534;2023-11-19T02:18:18;28.65;;;14.15;;
40252;SDS011;25972;51.854;4.534;2023-11-19T02:20:45;21.10;;;13.70;;
40252;SDS011;25972;51.854;4.534;2023-11-19T02:23:13;31.95;;;14.77;;
40252;SDS011;25972;51.854;4.534;2023-11-19T02:25:39;47.25;;;15.02;;
40252;SDS011;25972;51.854;4.534;2023-11-19T02:28:07;19.55;;;13.02;;
40252;SDS011;25972;51.854;4.534;2023-11-19T02:30:37;18.27;;;13.38;;
40252;SDS011;25972;51.854;4.534;2023-11-19T02:33:03;18.77;;;14.07;;
40252;SDS011;25972;51.854;4.534;2023-11-19T02:35:32;32.45;;;14.15;;
40252;SDS011;25972;51.854;4.534;2023-11-19T02:37:58;24.92;;;13.38;;
40252;SDS011;25972;51.854;4.534;2023-11-19T02:40:26;39.35;;;15.85;;
40252;SDS011;25972;51.854;4.534;2023-11-19T02:42:52;29.88;;;16.05;;
40252;SDS011;25972;51.854;4.534;2023-11-19T02:45:19;23.30;;;13.60;;
40252;SDS011;25972;51.854;4.534;2023-11-19T02:47:47;32.33;;;14.30;;
40252;SDS011;25972;51.854;4.534;2023-11-19T02:50:13;47.67;;;14.50;;
40252;SDS011;25972;51.854;4.534;2023-11-19T02:52:39;34.97;;;16.10;;
40252;SDS011;25972;51.854;4.534;2023-11-19T02:55:06;42.20;;;16.42;;
40252;SDS011;25972;51.854;4.534;2023-11-19T02:57:35;22.80;;;13.32;;
40252;SDS011;25972;51.854;4.534;2023-11-19T03:00:01;17.92;;;13.38;;
40252;SDS011;25972;51.854;4.534;2023-11-19T03:02:39;21.80;;;13.18;;
40252;SDS011;25972;51.854;4.534;2023-11-19T03:05:10;19.02;;;13.93;;
40252;SDS011;25972;51.854;4.534;2023-11-19T03:07:37;33.42;;;14.50;;
40252;SDS011;25972;51.854;4.534;2023-11-19T03:10:03;30.65;;;14.77;;
40252;SDS011;25972;51.854;4.534;2023-11-19T03:12:31;24.08;;;13.68;;
40252;SDS011;25972;51.854;4.534;2023-11-19T03:14:57;28.08;;;13.52;;
40252;SDS011;25972;51.854;4.534;2023-11-19T03:17:23;49.88;;;15.35;;
40252;SDS011;25972;51.854;4.534;2023-11-19T03:19:51;33.30;;;14.05;;
40252;SDS011;25972;51.854;4.534;2023-11-19T03:22:16;28.35;;;13.93;;
40252;SDS011;25972;51.854;4.534;2023-11-19T03:24:43;37.88;;;14.70;;
40252;SDS011;25972;51.854;4.534;2023-11-19T03:27:08;47.17;;;15.57;;
40252;SDS011;25972;51.854;4.534;2023-11-19T03:29:35;36.33;;;15.65;;
40252;SDS011;25972;51.854;4.534;2023-11-19T03:32:01;38.92;;;16.42;;
40252;SDS011;25972;51.854;4.534;2023-11-19T03:34:27;33.50;;;14.73;;
40252;SDS011;25972;51.854;4.534;2023-11-19T03:36:56;17.05;;;12.65;;
40252;SDS011;25972;51.854;4.534;2023-11-19T03:39:22;35.60;;;15.23;;
40252;SDS011;25972;51.854;4.534;2023-11-19T03:41:50;25.52;;;15.02;;
40252;SDS011;25972;51.854;4.534;2023-11-19T03:44:16;22.70;;;14.10;;
40252;SDS011;25972;51.854;4.534;2023-11-19T03:46:43;16.58;;;14.23;;
40252;SDS011;25972;51.854;4.534;2023-11-19T03:49:09;24.05;;;15.68;;
40252;SDS011;25972;51.854;4.534;2023-11-19T03:51:35;43.22;;;15.05;;
40252;SDS011;25972;51.854;4.534;2023-11-19T03:54:02;26.42;;;14.65;;
40252;SDS011;25972;51.854;4.534;2023-11-19T03:56:29;39.33;;;16.27;;
40252;SDS011;25972;51.854;4.534;2023-11-19T03:58:56;38.08;;;17.58;;
40252;SDS011;25972;51.854;4.534;2023-11-19T04:01:22;16.15;;;13.48;;
40252;SDS011;25972;51.854;4.534;2023-11-19T04:03:48;26.73;;;14.68;;
40252;SDS011;25972;51.854;4.534;2023-11-19T04:06:14;25.17;;;14.48;;
40252;SDS011;25972;51.854;4.534;2023-11-19T04:08:40;46.22;;;17.42;;
40252;SDS011;25972;51.854;4.534;2023-11-19T04:11:08;28.15;;;15.05;;
40252;SDS011;25972;51.854;4.534;2023-11-19T04:13:34;28.20;;;15.07;;
40252;SDS011;25972;51.854;4.534;2023-11-19T04:16:00;27.98;;;14.30;;
40252;SDS011;25972;51.854;4.534;2023-11-19T04:18:26;42.55;;;16.73;;
40252;SDS011;25972;51.854;4.534;2023-11-19T04:20:52;28.58;;;15.93;;
40252;SDS011;25972;51.854;4.534;2023-11-19T04:23:18;28.25;;;15.75;;
40252;SDS011;25972;51.854;4.534;2023-11-19T04:25:44;25.08;;;14.77;;
40252;SDS011;25972;51.854;4.534;2023-11-19T04:28:13;35.58;;;16.80;;
40252;SDS011;25972;51.854;4.534;2023-11-19T04:30:40;29.05;;;16.50;;
40252;SDS011;25972;51.854;4.534;2023-11-19T04:33:06;23.55;;;14.88;;
40252;SDS011;25972;51.854;4.534;2023-11-19T04:35:32;21.67;;;14.55;;
40252;SDS011;25972;51.854;4.534;2023-11-19T04:37:57;38.40;;;16.30;;
40252;SDS011;25972;51.854;4.534;2023-11-19T04:40:24;39.17;;;17.27;;
40252;SDS011;25972;51.854;4.534;2023-11-19T04:42:50;27.88;;;14.70;;
40252;SDS011;25972;51.854;4.534;2023-11-19T04:45:17;32.58;;;15.98;;
40252;SDS011;25972;51.854;4.534;2023-11-19T04:47:43;44.55;;;16.27;;
40252;SDS011;25972;51.854;4.534;2023-11-19T04:50:09;24.75;;;16.25;;
40252;SDS011;25972;51.854;4.534;2023-11-19T04:52:36;36.85;;;15.50;;
40252;SDS011;25972;51.854;4.534;2023-11-19T04:55:03;29.85;;;14.98;;
40252;SDS011;25972;51.854;4.534;2023-11-19T04:57:30;20.58;;;14.38;;
40252;SDS011;25972;51.854;4.534;2023-11-19T04:59:56;37.17;;;16.75;;
40252;SDS011;25972;51.854;4.534;2023-11-19T05:02:23;29.73;;;16.02;;
40252;SDS011;25972;51.854;4.534;2023-11-19T05:04:49;37.88;;;16.85;;
40252;SDS011;25972;51.854;4.534;2023-11-19T05:07:17;36.33;;;14.88;;
40252;SDS011;25972;51.854;4.534;2023-11-19T05:09:43;36.65;;;16.35;;
40252;SDS011;25972;51.854;4.534;2023-11-19T05:12:08;44.92;;;16.92;;
40252;SDS011;25972;51.854;4.534;2023-11-19T05:14:37;19.80;;;13.88;;
40252;SDS011;25972;51.854;4.534;2023-11-19T05:17:03;29.48;;;14.90;;
40252;SDS011;25972;51.854;4.534;2023-11-19T05:19:31;40.40;;;16.88;;
40252;SDS011;25972;51.854;4.534;2023-11-19T05:21:57;40.78;;;16.40;;
40252;SDS011;25972;51.854;4.534;2023-11-19T05:24:23;28.42;;;14.20;;
40252;SDS011;25972;51.854;4.534;2023-11-19T05:26:49;15.50;;;13.90;;
40252;SDS011;25972;51.854;4.534;2023-11-19T05:29:16;38.15;;;14.48;;
40252;SDS011;25972;51.854;4.534;2023-11-19T05:31:42;24.08;;;13.40;;
40252;SDS011;25972;51.854;4.534;2023-11-19T05:34:08;44.28;;;16.02;;
40252;SDS011;25972;51.854;4.534;2023-11-19T05:36:35;33.28;;;15.88;;
40252;SDS011;25972;51.854;4.534;2023-11-19T05:39:01;28.35;;;16.27;;
40252;SDS011;25972;51.854;4.534;2023-11-19T05:41:30;23.10;;;14.40;;
40252;SDS011;25972;51.854;4.534;2023-11-19T05:43:56;43.58;;;15.20;;
40252;SDS011;25972;51.854;4.534;2023-11-19T05:46:21;40.42;;;15.35;;
40252;SDS011;25972;51.854;4.534;2023-11-19T05:48:48;35.97;;;15.57;;
40252;SDS011;25972;51.854;4.534;2023-11-19T05:51:14;37.45;;;16.30;;
40252;SDS011;25972;51.854;4.534;2023-11-19T05:53:44;28.33;;;14.48;;
40252;SDS011;25972;51.854;4.534;2023-11-19T05:56:15;24.00;;;14.40;;
40252;SDS011;25972;51.854;4.534;2023-11-19T05:58:46;17.85;;;14.18;;
40252;SDS011;25972;51.854;4.534;2023-11-19T06:01:14;19.00;;;13.45;;
40252;SDS011;25972;51.854;4.534;2023-11-19T06:03:40;46.72;;;15.63;;
40252;SDS011;25972;51.854;4.534;2023-11-19T06:06:08;32.47;;;15.93;;
40252;SDS011;25972;51.854;4.534;2023-11-19T06:08:34;42.90;;;16.63;;
40252;SDS011;25972;51.854;4.534;2023-11-19T06:11:02;33.65;;;15.98;;
40252;SDS011;25972;51.854;4.534;2023-11-19T06:13:28;35.78;;;15.15;;
40252;SDS011;25972;51.854;4.534;2023-11-19T06:15:55;36.30;;;14.95;;
40252;SDS011;25972;51.854;4.534;2023-11-19T06:18:21;34.03;;;15.93;;
40252;SDS011;25972;51.854;4.534;2023-11-19T06:20:48;40.45;;;16.80;;
40252;SDS011;25972;51.854;4.534;2023-11-19T06:23:15;18.70;;;13.15;;
40252;SDS011;25972;51.854;4.534;2023-11-19T06:25:41;36.78;;;16.13;;
40252;SDS011;25972;51.854;4.534;2023-11-19T06:28:08;39.17;;;15.88;;
40252;SDS011;25972;51.854;4.534;2023-11-19T06:30:34;31.63;;;14.68;;
40252;SDS011;25972;51.854;4.534;2023-11-19T06:33:01;18.02;;;13.48;;
40252;SDS011;25972;51.854;4.534;2023-11-19T06:35:28;39.63;;;14.95;;
40252;SDS011;25972;51.854;4.534;2023-11-19T06:38:01;23.05;;;13.95;;
40252;SDS011;25972;51.854;4.534;2023-11-19T06:40:27;34.58;;;15.65;;
40252;SDS011;25972;51.854;4.534;2023-11-19T06:42:54;46.75;;;15.70;;
40252;SDS011;25972;51.854;4.534;2023-11-19T06:45:21;40.35;;;16.23;;
40252;SDS011;25972;51.854;4.534;2023-11-19T06:47:47;34.03;;;15.43;;
40252;SDS011;25972;51.854;4.534;2023-11-19T06:50:13;27.95;;;13.88;;
40252;SDS011;25972;51.854;4.534;2023-11-19T06:52:40;18.15;;;14.27;;
40252;SDS011;25972;51.854;4.534;2023-11-19T06:55:06;17.95;;;14.50;;
40252;SDS011;25972;51.854;4.534;2023-11-19T06:57:33;37.22;;;15.18;;
40252;SDS011;25972;51.854;4.534;2023-11-19T06:59:59;17.38;;;13.73;;
40252;SDS011;25972;51.854;4.534;2023-11-19T07:02:28;37.95;;;16.00;;
40252;SDS011;25972;51.854;4.534;2023-11-19T07:04:54;38.20;;;16.10;;
40252;SDS011;25972;51.854;4.534;2023-11-19T07:07:20;28.50;;;15.70;;
40252;SDS011;25972;51.854;4.534;2023-11-19T07:09:46;52.90;;;17.48;;
40252;SDS011;25972;51.854;4.534;2023-11-19T07:12:13;32.58;;;14.85;;
40252;SDS011;25972;51.854;4.534;2023-11-19T07:14:39;32.60;;;14.70;;
40252;SDS011;25972;51.854;4.534;2023-11-19T07:17:07;42.60;;;15.82;;
40252;SDS011;25972;51.854;4.534;2023-11-19T07:19:37;32.13;;;16.75;;
40252;SDS011;25972;51.854;4.534;2023-11-19T07:22:04;19.58;;;13.70;;
40252;SDS011;25972;51.854;4.534;2023-11-19T07:24:31;20.88;;;13.90;;
40252;SDS011;25972;51.854;4.534;2023-11-19T07:26:57;37.05;;;15.63;;
40252;SDS011;25972;51.854;4.534;2023-11-19T07:29:23;27.92;;;14.43;;
40252;SDS011;25972;51.854;4.534;2023-11-19T07:31:49;26.55;;;14.55;;
40252;SDS011;25972;51.854;4.534;2023-11-19T07:34:15;41.60;;;15.38;;
40252;SDS011;25972;51.854;4.534;2023-11-19T07:36:43;34.95;;;15.43;;
40252;SDS011;25972;51.854;4.534;2023-11-19T07:39:08;29.63;;;14.70;;
40252;SDS011;25972;51.854;4.534;2023-11-19T07:41:35;33.30;;;14.65;;
40252;SDS011;25972;51.854;4.534;2023-11-19T07:44:04;43.20;;;15.57;;
40252;SDS011;25972;51.854;4.534;2023-11-19T07:46:31;44.92;;;16.60;;
40252;SDS011;25972;51.854;4.534;2023-11-19T07:48:58;14.40;;;13.02;;
40252;SDS011;25972;51.854;4.534;2023-11-19T07:51:24;43.97;;;14.48;;
40252;SDS011;25972;51.854;4.534;2023-11-19T07:53:51;35.20;;;14.45;;
40252;SDS011;25972;51.854;4.534;2023-11-19T07:56:17;31.55;;;14.82;;
40252;SDS011;25972;51.854;4.534;2023-11-19T07:58:43;23.38;;;13.95;;
40252;SDS011;25972;51.854;4.534;2023-11-19T08:01:09;36.28;;;14.90;;
40252;SDS011;25972;51.854;4.534;2023-11-19T08:03:35;32.00;;;15.52;;
40252;SDS011;25972;51.854;4.534;2023-11-19T08:06:01;21.15;;;14.25;;
40252;SDS011;25972;51.854;4.534;2023-11-19T08:08:30;16.15;;;13.38;;
40252;SDS011;25972;51.854;4.534;2023-11-19T08:10:59;26.67;;;14.50;;
40252;SDS011;25972;51.854;4.534;2023-11-19T08:13:25;28.33;;;13.77;;
40252;SDS011;25972;51.854;4.534;2023-11-19T08:15:52;26.35;;;14.13;;
40252;SDS011;25972;51.854;4.534;2023-11-19T08:18:18;16.38;;;13.23;;
40252;SDS011;25972;51.854;4.534;2023-11-19T08:20:44;24.13;;;15.20;;
40252;SDS011;25972;51.854;4.534;2023-11-19T08:23:10;25.05;;;13.88;;
40252;SDS011;25972;51.854;4.534;2023-11-19T08:25:37;21.58;;;13.40;;
40252;SDS011;25972;51.854;4.534;2023-11-19T08:28:04;22.60;;;15.05;;
40252;SDS011;25972;51.854;4.534;2023-11-19T08:30:30;25.58;;;13.50;;
40252;SDS011;25972;51.854;4.534;2023-11-19T08:32:56;35.42;;;15.75;;
40252;SDS011;25972;51.854;4.534;2023-11-19T08:35:23;24.30;;;14.65;;
40252;SDS011;25972;51.854;4.534;2023-11-19T08:37:50;33.08;;;14.80;;
40252;SDS011;25972;51.854;4.534;2023-11-19T08:40:17;33.42;;;15.32;;
40252;SDS011;25972;51.854;4.534;2023-11-19T08:42:43;34.53;;;14.38;;
40252;SDS011;25972;51.854;4.534;2023-11-19T08:45:11;31.13;;;15.00;;
40252;SDS011;25972;51.854;4.534;2023-11-19T08:47:37;36.35;;;16.38;;
40252;SDS011;25972;51.854;4.534;2023-11-19T08:50:03;34.38;;;16.38;;
40252;SDS011;25972;51.854;4.534;2023-11-19T08:52:30;35.72;;;15.88;;
40252;SDS011;25972;51.854;4.534;2023-11-19T08:54:56;18.77;;;13.68;;
40252;SDS011;25972;51.854;4.534;2023-11-19T08:57:22;23.08;;;15.25;;
40252;SDS011;25972;51.854;4.534;2023-11-19T08:59:48;29.10;;;14.65;;
40252;SDS011;25972;51.854;4.534;2023-11-19T09:02:16;16.33;;;14.27;;
40252;SDS011;25972;51.854;4.534;2023-11-19T09:04:42;25.75;;;15.57;;
40252;SDS011;25972;51.854;4.534;2023-11-19T09:07:08;21.48;;;13.88;;
40252;SDS011;25972;51.854;4.534;2023-11-19T09:09:37;33.22;;;15.27;;
40252;SDS011;25972;51.854;4.534;2023-11-19T09:12:04;17.45;;;15.00;;
40252;SDS011;25972;51.854;4.534;2023-11-19T09:14:30;17.35;;;14.82;;
40252;SDS011;25972;51.854;4.534;2023-11-19T09:16:56;18.23;;;14.23;;
40252;SDS011;25972;51.854;4.534;2023-11-19T09:19:24;25.45;;;16.58;;
40252;SDS011;25972;51.854;4.534;2023-11-19T09:21:51;39.42;;;16.20;;
40252;SDS011;25972;51.854;4.534;2023-11-19T09:24:18;37.28;;;16.90;;
40252;SDS011;25972;51.854;4.534;2023-11-19T09:26:44;30.00;;;15.95;;
40252;SDS011;25972;51.854;4.534;2023-11-19T09:29:11;44.40;;;16.48;;
40252;SDS011;25972;51.854;4.534;2023-11-19T09:31:39;38.97;;;17.50;;
40252;SDS011;25972;51.854;4.534;2023-11-19T09:34:06;25.50;;;16.15;;
40252;SDS011;25972;51.854;4.534;2023-11-19T09:36:33;38.88;;;16.55;;
40252;SDS011;25972;51.854;4.534;2023-11-19T09:38:59;24.85;;;15.57;;
40252;SDS011;25972;51.854;4.534;2023-11-19T09:41:27;19.88;;;14.77;;
40252;SDS011;25972;51.854;4.534;2023-11-19T09:43:54;32.92;;;17.08;;
40252;SDS011;25972;51.854;4.534;2023-11-19T09:46:20;16.15;;;14.18;;
40252;SDS011;25972;51.854;4.534;2023-11-19T09:48:49;24.63;;;15.48;;
40252;SDS011;25972;51.854;4.534;2023-11-19T09:51:20;21.23;;;15.95;;
40252;SDS011;25972;51.854;4.534;2023-11-19T09:53:48;30.15;;;17.10;;
40252;SDS011;25972;51.854;4.534;2023-11-19T09:56:15;34.20;;;17.38;;
40252;SDS011;25972;51.854;4.534;2023-11-19T09:58:42;17.60;;;15.57;;
40252;SDS011;25972;51.854;4.534;2023-11-19T10:01:08;25.90;;;15.85;;
40252;SDS011;25972;51.854;4.534;2023-11-19T10:03:37;22.15;;;15.63;;
40252;SDS011;25972;51.854;4.534;2023-11-19T10:06:06;20.42;;;16.05;;
40252;SDS011;25972;51.854;4.534;2023-11-19T10:08:32;29.48;;;18.38;;
40252;SDS011;25972;51.854;4.534;2023-11-19T10:11:00;35.97;;;17.42;;
40252;SDS011;25972;51.854;4.534;2023-11-19T10:13:26;20.50;;;16.05;;
40252;SDS011;25972;51.854;4.534;2023-11-19T10:15:53;23.73;;;17.50;;
40252;SDS011;25972;51.854;4.534;2023-11-19T10:18:23;31.42;;;17.02;;
40252;SDS011;25972;51.854;4.534;2023-11-19T10:20:51;32.85;;;20.42;;
40252;SDS011;25972;51.854;4.534;2023-11-19T10:23:17;29.83;;;17.90;;
40252;SDS011;25972;51.854;4.534;2023-11-19T10:25:43;17.73;;;16.00;;
40252;SDS011;25972;51.854;4.534;2023-11-19T10:28:11;20.65;;;17.50;;
40252;SDS011;25972;51.854;4.534;2023-11-19T10:30:37;28.85;;;18.10;;
40252;SDS011;25972;51.854;4.534;2023-11-19T10:33:03;29.17;;;18.67;;
40252;SDS011;25972;51.854;4.534;2023-11-19T10:35:31;34.17;;;18.23;;
40252;SDS011;25972;51.854;4.534;2023-11-19T10:37:58;22.70;;;17.63;;
40252;SDS011;25972;51.854;4.534;2023-11-19T10:40:29;35.58;;;18.63;;
40252;SDS011;25972;51.854;4.534;2023-11-19T10:43:05;34.30;;;18.38;;
40252;SDS011;25972;51.854;4.534;2023-11-19T10:45:34;24.52;;;17.67;;
40252;SDS011;25972;51.854;4.534;2023-11-19T10:48:00;23.98;;;17.40;;
40252;SDS011;25972;51.854;4.534;2023-11-19T10:50:31;32.20;;;19.23;;
40252;SDS011;25972;51.854;4.534;2023-11-19T10:52:58;21.77;;;17.45;;
40252;SDS011;25972;51.854;4.534;2023-11-19T10:55:26;19.05;;;17.25;;
40252;SDS011;25972;51.854;4.534;2023-11-19T10:57:55;33.65;;;19.67;;
40252;SDS011;25972;51.854;4.534;2023-11-19T11:00:25;24.30;;;18.88;;
40252;SDS011;25972;51.854;4.534;2023-11-19T11:02:54;30.50;;;17.60;;
40252;SDS011;25972;51.854;4.534;2023-11-19T11:05:25;24.75;;;18.73;;
40252;SDS011;25972;51.854;4.534;2023-11-19T11:07:52;24.02;;;18.00;;
40252;SDS011;25972;51.854;4.534;2023-11-19T11:10:20;21.48;;;17.80;;
40252;SDS011;25972;51.854;4.534;2023-11-19T11:12:51;38.08;;;19.80;;
40252;SDS011;25972;51.854;4.534;2023-11-19T11:15:24;25.88;;;18.65;;
40252;SDS011;25972;51.854;4.534;2023-11-19T11:17:58;19.75;;;17.88;;
40252;SDS011;25972;51.854;4.534;2023-11-19T11:23:00;24.23;;;18.75;;
40252;SDS011;25972;51.854;4.534;2023-11-19T11:25:52;27.40;;;19.30;;
40252;SDS011;25972;51.854;4.534;2023-11-19T11:28:32;24.73;;;19.02;;
40252;SDS011;25972;51.854;4.534;2023-11-19T11:31:21;25.23;;;18.58;;
40252;SDS011;25972;51.854;4.534;2023-11-19T11:36:57;18.63;;;17.05;;
40252;SDS011;25972;51.854;4.534;2023-11-19T11:39:32;42.17;;;20.52;;
40252;SDS011;25972;51.854;4.534;2023-11-19T11:44:59;37.20;;;19.20;;
40252;SDS011;25972;51.854;4.534;2023-11-19T11:50:28;28.30;;;19.48;;
40252;SDS011;25972;51.854;4.534;2023-11-19T11:53:13;32.40;;;21.40;;
40252;SDS011;25972;51.854;4.534;2023-11-19T11:55:53;34.00;;;19.40;;
40252;SDS011;25972;51.854;4.534;2023-11-19T11:58:21;37.33;;;19.95;;
40252;SDS011;25972;51.854;4.534;2023-11-19T12:00:52;29.40;;;18.75;;
40252;SDS011;25972;51.854;4.534;2023-11-19T12:03:19;24.17;;;18.42;;
40252;SDS011;25972;51.854;4.534;2023-11-19T12:05:50;28.25;;;19.27;;
40252;SDS011;25972;51.854;4.534;2023-11-19T12:08:18;33.53;;;19.23;;
40252;SDS011;25972;51.854;4.534;2023-11-19T12:10:46;22.52;;;18.92;;
40252;SDS011;25972;51.854;4.534;2023-11-19T12:13:16;28.80;;;18.95;;
40252;SDS011;25972;51.854;4.534;2023-11-19T12:18:36;36.67;;;20.33;;
40252;SDS011;25972;51.854;4.534;2023-11-19T12:21:06;32.92;;;18.98;;
40252;SDS011;25972;51.854;4.534;2023-11-19T12:23:35;20.95;;;18.83;;
40252;SDS011;25972;51.854;4.534;2023-11-19T12:26:09;32.22;;;19.40;;
40252;SDS011;25972;51.854;4.534;2023-11-19T12:28:56;27.30;;;20.67;;
40252;SDS011;25972;51.854;4.534;2023-11-19T12:31:23;20.88;;;18.67;;
40252;SDS011;25972;51.854;4.534;2023-11-19T12:33:50;20.65;;;18.55;;
40252;SDS011;25972;51.854;4.534;2023-11-19T12:36:18;21.10;;;18.33;;
40252;SDS011;25972;51.854;4.534;2023-11-19T12:38:45;23.13;;;18.88;;
40252;SDS011;25972;51.854;4.534;2023-11-19T12:41:11;25.77;;;18.88;;
40252;SDS011;25972;51.854;4.534;2023-11-19T12:43:38;27.33;;;18.58;;
40252;SDS011;25972;51.854;4.534;2023-11-19T12:46:16;21.65;;;18.85;;
40252;SDS011;25972;51.854;4.534;2023-11-19T12:48:43;21.30;;;18.98;;
40252;SDS011;25972;51.854;4.534;2023-11-19T12:51:10;23.20;;;18.77;;
40252;SDS011;25972;51.854;4.534;2023-11-19T12:53:48;30.58;;;19.15;;
40252;SDS011;25972;51.854;4.534;2023-11-19T12:56:15;27.30;;;18.42;;
40252;SDS011;25972;51.854;4.534;2023-11-19T12:58:42;24.65;;;18.77;;
40252;SDS011;25972;51.854;4.534;2023-11-19T13:01:08;21.15;;;19.00;;
40252;SDS011;25972;51.854;4.534;2023-11-19T13:03:35;20.63;;;18.13;;
40252;SDS011;25972;51.854;4.534;2023-11-19T13:06:03;19.08;;;17.27;;
40252;SDS011;25972;51.854;4.534;2023-11-19T13:08:35;22.90;;;18.67;;
40252;SDS011;25972;51.854;4.534;2023-11-19T13:11:05;32.67;;;19.60;;
40252;SDS011;25972;51.854;4.534;2023-11-19T13:13:31;30.10;;;19.50;;
40252;SDS011;25972;51.854;4.534;2023-11-19T13:16:01;30.92;;;19.88;;
40252;SDS011;25972;51.854;4.534;2023-11-19T13:18:28;26.80;;;19.38;;
40252;SDS011;25972;51.854;4.534;2023-11-19T13:20:54;33.25;;;19.30;;
40252;SDS011;25972;51.854;4.534;2023-11-19T13:23:22;26.35;;;19.40;;
40252;SDS011;25972;51.854;4.534;2023-11-19T13:25:48;20.02;;;18.00;;
40252;SDS011;25972;51.854;4.534;2023-11-19T13:28:16;24.60;;;18.48;;
40252;SDS011;25972;51.854;4.534;2023-11-19T13:30:41;30.40;;;18.73;;
40252;SDS011;25972;51.854;4.534;2023-11-19T13:33:15;21.60;;;19.08;;
40252;SDS011;25972;51.854;4.534;2023-11-19T13:35:42;26.45;;;19.15;;
40252;SDS011;25972;51.854;4.534;2023-11-19T13:38:08;28.38;;;19.88;;
40252;SDS011;25972;51.854;4.534;2023-11-19T13:40:34;32.95;;;20.05;;
40252;SDS011;25972;51.854;4.534;2023-11-19T13:43:00;40.22;;;20.10;;
40252;SDS011;25972;51.854;4.534;2023-11-19T13:45:26;28.65;;;19.02;;
40252;SDS011;25972;51.854;4.534;2023-11-19T13:47:53;27.27;;;18.67;;
40252;SDS011;25972;51.854;4.534;2023-11-19T13:50:20;39.85;;;19.83;;
40252;SDS011;25972;51.854;4.534;2023-11-19T13:52:48;27.65;;;19.85;;
40252;SDS011;25972;51.854;4.534;2023-11-19T13:55:14;23.00;;;19.40;;
40252;SDS011;25972;51.854;4.534;2023-11-19T13:57:41;24.95;;;18.13;;
40252;SDS011;25972;51.854;4.534;2023-11-19T14:00:09;30.63;;;19.88;;
40252;SDS011;25972;51.854;4.534;2023-11-19T14:02:38;23.77;;;19.73;;
40252;SDS011;25972;51.854;4.534;2023-11-19T14:05:05;32.88;;;20.30;;
40252;SDS011;25972;51.854;4.534;2023-11-19T14:07:33;46.90;;;21.52;;
40252;SDS011;25972;51.854;4.534;2023-11-19T14:09:59;32.65;;;19.52;;
40252;SDS011;25972;51.854;4.534;2023-11-19T14:12:25;20.33;;;18.27;;
40252;SDS011;25972;51.854;4.534;2023-11-19T14:16:58;20.42;;;18.38;;
40252;SDS011;25972;51.854;4.534;2023-11-19T14:19:24;21.67;;;19.70;;
40252;SDS011;25972;51.854;4.534;2023-11-19T14:21:53;24.25;;;19.27;;
40252;SDS011;25972;51.854;4.534;2023-11-19T14:24:19;21.10;;;19.02;;
40252;SDS011;25972;51.854;4.534;2023-11-19T14:26:45;31.13;;;20.50;;
40252;SDS011;25972;51.854;4.534;2023-11-19T14:31:19;34.05;;;19.98;;
40252;SDS011;25972;51.854;4.534;2023-11-19T14:33:45;21.52;;;18.70;;
40252;SDS011;25972;51.854;4.534;2023-11-19T14:36:11;27.05;;;18.95;;
40252;SDS011;25972;51.854;4.534;2023-11-19T14:38:37;29.38;;;20.05;;
40252;SDS011;25972;51.854;4.534;2023-11-19T14:41:04;22.92;;;19.65;;